Aérodrome :
LOGIN :

S'inscrire | Disclaimer

   EN    FR    IT 

 










Légende :    VFR   VFR Marginal   IFR   IFR Intensif   IFR Très Intensif
Visi : 
Plafond : 
>= 8 km
>= 3000ft
5 à 8 km
1000 à 3000 ft
1500m à 5 km
500 à 1000 ft
800 à 1500m
200 à 500 ft
< 800m
< 200 ft
Symboles :   Orages  Brouillard  Fortes neiges  Fortes précipitations  Vent > 20 kt
SIGMETs :   Divers  Orages  Givrage  Turbulence  Onde Orograph.  Cendres Volcan.






- Altitude de l'aérodrome : 659 ft
- Code IATA : LYN


LFLY - Lyon Bron

DERNIER METAR :
  • 190600Z AUTO 18007KT 9999 FEW035/// OVC140/// ///CB 17/14 Q1009 TEMPO 4000 SHRA BKN012 SCT025TCU BKN040

METARs EXPIRÉS :
  • 190530Z AUTO 15006KT 9999 FEW025 SCT100 OVC130 16/14 Q1009 TEMPO 4000 SHRA BKN012 SCT025TCU BKN040
  • 190500Z AUTO 24006KT 9999 ///TCU 17/14 Q1009 TEMPO 2000 SHRA BKN012 FEW020CB BKN040 BECMG 18010KT
  • 190430Z AUTO 16009KT 130V190 CAVOK 17/14 Q1009 TEMPO 2000 SHRA BKN012 FEW020CB BKN040
  • 190400Z AUTO 16010KT 9999 -RA ///CB 17/14 Q1009 TEMPO 2000 SHRA BKN040
  • 190330Z AUTO 19010KT 9999 -RA ///TCU 17/14 Q1009 TEMPO 2000 SHRA BKN012 FEW020CB BKN040

TAF TAF LFLY
Valide du 19 à 06h jusqu'au 20 à 06h UTC


190500Z 1906/2006 18010KT CAVOK
PROB30
TEMPO 1906/1910 4000 SHRA BKN012 SCT025TCU BKN040
TEMPO 1910/1920 4000 SHRA SCT012 FEW020CB BKN040
PROB40
TEMPO 1910/1920 2000 TSRA BKN012 SCT020CB BKN025TCU
TEMPO 1915/1920 18020G35KT
PROB40
TEMPO 1923/2003 18020G40KT
ATIS : +33 4 72 15 87 96



MET'MAP, la Météo Aéronautique d'un coup d'oeil ! - Copyright ORBIFLY Décembre 2007 - Disclaimer

ORBIFLY MET'MAP TEAM :

Programmation & Développement : Alexandra Zaïnal
Conception & Développement : Baudouin d'Aumeries
Co-Programmation & Développement : Marc-Olivier Méhu
Soutien technique & logistique : Manuel Goepfert

Contact : metmap@orbifly.com




SOURCES & CREDITS :

   NOAA